sensor_id;sensor_type;location;lat;lon;timestamp;P1;durP1;ratioP1;P2;durP2;ratioP2
11490;SDS011;5802;52.832;4.758;2023-04-01T00:01:01;1.23;;;0.52;;
11490;SDS011;5802;52.832;4.758;2023-04-01T00:03:30;0.85;;;0.60;;
11490;SDS011;5802;52.832;4.758;2023-04-01T00:05:58;1.02;;;0.52;;
11490;SDS011;5802;52.832;4.758;2023-04-01T00:08:26;0.93;;;0.68;;
11490;SDS011;5802;52.832;4.758;2023-04-01T00:10:53;0.93;;;0.50;;
11490;SDS011;5802;52.832;4.758;2023-04-01T00:13:20;1.00;;;0.52;;
11490;SDS011;5802;52.832;4.758;2023-04-01T00:15:49;0.95;;;0.60;;
11490;SDS011;5802;52.832;4.758;2023-04-01T00:18:16;0.88;;;0.52;;
11490;SDS011;5802;52.832;4.758;2023-04-01T00:20:43;1.05;;;0.50;;
11490;SDS011;5802;52.832;4.758;2023-04-01T00:23:10;2.15;;;0.52;;
11490;SDS011;5802;52.832;4.758;2023-04-01T00:25:37;0.85;;;0.50;;
11490;SDS011;5802;52.832;4.758;2023-04-01T00:28:04;0.98;;;0.50;;
11490;SDS011;5802;52.832;4.758;2023-04-01T00:30:31;0.45;;;0.40;;
11490;SDS011;5802;52.832;4.758;2023-04-01T00:32:59;1.00;;;0.60;;
11490;SDS011;5802;52.832;4.758;2023-04-01T00:35:26;1.88;;;0.40;;
11490;SDS011;5802;52.832;4.758;2023-04-01T00:37:53;1.58;;;0.50;;
11490;SDS011;5802;52.832;4.758;2023-04-01T00:40:25;2.10;;;0.50;;
11490;SDS011;5802;52.832;4.758;2023-04-01T00:42:54;1.05;;;0.60;;
11490;SDS011;5802;52.832;4.758;2023-04-01T00:45:28;0.55;;;0.47;;
11490;SDS011;5802;52.832;4.758;2023-04-01T00:47:59;0.82;;;0.50;;
11490;SDS011;5802;52.832;4.758;2023-04-01T00:50:30;0.40;;;0.40;;
11490;SDS011;5802;52.832;4.758;2023-04-01T00:53:00;1.23;;;0.50;;
11490;SDS011;5802;52.832;4.758;2023-04-01T00:55:29;0.40;;;0.40;;
11490;SDS011;5802;52.832;4.758;2023-04-01T00:57:58;0.32;;;0.30;;
11490;SDS011;5802;52.832;4.758;2023-04-01T01:00:25;0.63;;;0.50;;
11490;SDS011;5802;52.832;4.758;2023-04-01T01:02:52;1.00;;;0.50;;
11490;SDS011;5802;52.832;4.758;2023-04-01T01:05:22;0.47;;;0.30;;
11490;SDS011;5802;52.832;4.758;2023-04-01T01:07:59;0.35;;;0.35;;
11490;SDS011;5802;52.832;4.758;2023-04-01T01:10:31;0.52;;;0.50;;
11490;SDS011;5802;52.832;4.758;2023-04-01T01:13:01;0.70;;;0.30;;
11490;SDS011;5802;52.832;4.758;2023-04-01T01:15:37;0.63;;;0.40;;
11490;SDS011;5802;52.832;4.758;2023-04-01T01:18:14;0.82;;;0.38;;
11490;SDS011;5802;52.832;4.758;2023-04-01T01:20:55;0.57;;;0.50;;
11490;SDS011;5802;52.832;4.758;2023-04-01T01:23:55;0.43;;;0.25;;
11490;SDS011;5802;52.832;4.758;2023-04-01T01:26:39;0.45;;;0.40;;
11490;SDS011;5802;52.832;4.758;2023-04-01T01:29:16;0.73;;;0.40;;
11490;SDS011;5802;52.832;4.758;2023-04-01T01:32:11;1.00;;;0.43;;
11490;SDS011;5802;52.832;4.758;2023-04-01T01:34:52;0.40;;;0.40;;
11490;SDS011;5802;52.832;4.758;2023-04-01T01:37:25;0.50;;;0.50;;
11490;SDS011;5802;52.832;4.758;2023-04-01T01:39:54;0.60;;;0.47;;
11490;SDS011;5802;52.832;4.758;2023-04-01T01:42:24;1.30;;;0.57;;
11490;SDS011;5802;52.832;4.758;2023-04-01T01:44:53;0.88;;;0.70;;
11490;SDS011;5802;52.832;4.758;2023-04-01T01:47:23;0.80;;;0.50;;
11490;SDS011;5802;52.832;4.758;2023-04-01T01:49:50;0.93;;;0.63;;
11490;SDS011;5802;52.832;4.758;2023-04-01T01:52:18;0.40;;;0.40;;
11490;SDS011;5802;52.832;4.758;2023-04-01T01:54:50;0.77;;;0.52;;
11490;SDS011;5802;52.832;4.758;2023-04-01T01:57:17;0.50;;;0.40;;
11490;SDS011;5802;52.832;4.758;2023-04-01T01:59:48;1.25;;;0.63;;
11490;SDS011;5802;52.832;4.758;2023-04-01T02:02:16;1.90;;;0.60;;
11490;SDS011;5802;52.832;4.758;2023-04-01T02:04:43;0.82;;;0.40;;
11490;SDS011;5802;52.832;4.758;2023-04-01T02:07:12;1.23;;;0.50;;
11490;SDS011;5802;52.832;4.758;2023-04-01T02:09:42;1.25;;;0.52;;
11490;SDS011;5802;52.832;4.758;2023-04-01T02:12:11;1.38;;;0.40;;
11490;SDS011;5802;52.832;4.758;2023-04-01T02:14:41;1.33;;;0.57;;
11490;SDS011;5802;52.832;4.758;2023-04-01T02:17:12;0.50;;;0.50;;
11490;SDS011;5802;52.832;4.758;2023-04-01T02:19:43;2.72;;;0.50;;
11490;SDS011;5802;52.832;4.758;2023-04-01T02:22:14;0.50;;;0.50;;
11490;SDS011;5802;52.832;4.758;2023-04-01T02:24:44;0.73;;;0.40;;
11490;SDS011;5802;52.832;4.758;2023-04-01T02:27:12;0.40;;;0.40;;
11490;SDS011;5802;52.832;4.758;2023-04-01T02:29:39;0.65;;;0.40;;
11490;SDS011;5802;52.832;4.758;2023-04-01T02:32:06;0.63;;;0.50;;
11490;SDS011;5802;52.832;4.758;2023-04-01T02:34:34;0.40;;;0.40;;
11490;SDS011;5802;52.832;4.758;2023-04-01T02:37:02;0.70;;;0.47;;
11490;SDS011;5802;52.832;4.758;2023-04-01T02:39:29;0.60;;;0.47;;
11490;SDS011;5802;52.832;4.758;2023-04-01T02:41:56;0.50;;;0.35;;
11490;SDS011;5802;52.832;4.758;2023-04-01T02:44:24;0.40;;;0.40;;
11490;SDS011;5802;52.832;4.758;2023-04-01T02:46:50;0.40;;;0.32;;
11490;SDS011;5802;52.832;4.758;2023-04-01T02:49:17;0.75;;;0.40;;
11490;SDS011;5802;52.832;4.758;2023-04-01T02:51:44;0.40;;;0.40;;
11490;SDS011;5802;52.832;4.758;2023-04-01T02:54:11;0.75;;;0.38;;
11490;SDS011;5802;52.832;4.758;2023-04-01T02:56:38;0.28;;;0.28;;
11490;SDS011;5802;52.832;4.758;2023-04-01T02:59:04;0.30;;;0.30;;
11490;SDS011;5802;52.832;4.758;2023-04-01T03:01:32;0.50;;;0.40;;
11490;SDS011;5802;52.832;4.758;2023-04-01T03:03:59;0.30;;;0.30;;
11490;SDS011;5802;52.832;4.758;2023-04-01T03:06:26;0.30;;;0.30;;
11490;SDS011;5802;52.832;4.758;2023-04-01T03:08:52;0.60;;;0.40;;
11490;SDS011;5802;52.832;4.758;2023-04-01T03:11:19;0.85;;;0.80;;
11490;SDS011;5802;52.832;4.758;2023-04-01T03:13:46;1.45;;;0.40;;
11490;SDS011;5802;52.832;4.758;2023-04-01T03:16:13;1.15;;;0.45;;
11490;SDS011;5802;52.832;4.758;2023-04-01T03:18:41;0.30;;;0.30;;
11490;SDS011;5802;52.832;4.758;2023-04-01T03:21:12;1.25;;;0.63;;
11490;SDS011;5802;52.832;4.758;2023-04-01T03:23:40;0.30;;;0.30;;
11490;SDS011;5802;52.832;4.758;2023-04-01T03:26:07;1.63;;;0.55;;
11490;SDS011;5802;52.832;4.758;2023-04-01T03:28:33;0.40;;;0.38;;
11490;SDS011;5802;52.832;4.758;2023-04-01T03:31:00;0.20;;;0.20;;
11490;SDS011;5802;52.832;4.758;2023-04-01T03:33:27;0.50;;;0.40;;
11490;SDS011;5802;52.832;4.758;2023-04-01T03:35:55;0.43;;;0.40;;
11490;SDS011;5802;52.832;4.758;2023-04-01T03:38:21;1.38;;;0.30;;
11490;SDS011;5802;52.832;4.758;2023-04-01T03:40:48;0.40;;;0.40;;
11490;SDS011;5802;52.832;4.758;2023-04-01T03:43:15;0.52;;;0.50;;
11490;SDS011;5802;52.832;4.758;2023-04-01T03:45:45;0.47;;;0.47;;
11490;SDS011;5802;52.832;4.758;2023-04-01T03:48:13;0.60;;;0.50;;
11490;SDS011;5802;52.832;4.758;2023-04-01T03:50:40;0.98;;;0.35;;
11490;SDS011;5802;52.832;4.758;2023-04-01T03:53:08;0.90;;;0.50;;
11490;SDS011;5802;52.832;4.758;2023-04-01T03:55:36;0.80;;;0.55;;
11490;SDS011;5802;52.832;4.758;2023-04-01T03:58:03;0.63;;;0.43;;
11490;SDS011;5802;52.832;4.758;2023-04-01T04:00:30;0.38;;;0.38;;
11490;SDS011;5802;52.832;4.758;2023-04-01T04:02:57;0.38;;;0.20;;
11490;SDS011;5802;52.832;4.758;2023-04-01T04:05:24;1.10;;;0.68;;
11490;SDS011;5802;52.832;4.758;2023-04-01T04:07:52;0.70;;;0.55;;
11490;SDS011;5802;52.832;4.758;2023-04-01T04:10:20;0.60;;;0.52;;
11490;SDS011;5802;52.832;4.758;2023-04-01T04:12:48;1.55;;;0.35;;
11490;SDS011;5802;52.832;4.758;2023-04-01T04:15:16;0.60;;;0.40;;
11490;SDS011;5802;52.832;4.758;2023-04-01T04:17:43;2.00;;;0.55;;
11490;SDS011;5802;52.832;4.758;2023-04-01T04:20:10;0.70;;;0.40;;
11490;SDS011;5802;52.832;4.758;2023-04-01T04:22:37;0.70;;;0.40;;
11490;SDS011;5802;52.832;4.758;2023-04-01T04:25:04;0.45;;;0.40;;
11490;SDS011;5802;52.832;4.758;2023-04-01T04:27:33;0.57;;;0.55;;
11490;SDS011;5802;52.832;4.758;2023-04-01T04:30:00;1.02;;;0.40;;
11490;SDS011;5802;52.832;4.758;2023-04-01T04:32:26;1.00;;;0.30;;
11490;SDS011;5802;52.832;4.758;2023-04-01T04:34:53;0.60;;;0.57;;
11490;SDS011;5802;52.832;4.758;2023-04-01T04:37:23;4.50;;;0.80;;
11490;SDS011;5802;52.832;4.758;2023-04-01T04:39:50;0.73;;;0.60;;
11490;SDS011;5802;52.832;4.758;2023-04-01T04:42:17;0.70;;;0.50;;
11490;SDS011;5802;52.832;4.758;2023-04-01T04:44:45;0.65;;;0.40;;
11490;SDS011;5802;52.832;4.758;2023-04-01T04:47:12;3.60;;;0.70;;
11490;SDS011;5802;52.832;4.758;2023-04-01T04:49:38;1.88;;;0.57;;
11490;SDS011;5802;52.832;4.758;2023-04-01T04:52:05;1.23;;;0.95;;
11490;SDS011;5802;52.832;4.758;2023-04-01T04:54:32;1.50;;;0.60;;
11490;SDS011;5802;52.832;4.758;2023-04-01T04:56:59;1.13;;;0.50;;
11490;SDS011;5802;52.832;4.758;2023-04-01T04:59:25;1.85;;;0.60;;
11490;SDS011;5802;52.832;4.758;2023-04-01T05:01:53;0.65;;;0.50;;
11490;SDS011;5802;52.832;4.758;2023-04-01T05:04:20;0.63;;;0.50;;
11490;SDS011;5802;52.832;4.758;2023-04-01T05:06:47;0.95;;;0.50;;
11490;SDS011;5802;52.832;4.758;2023-04-01T05:09:14;1.52;;;0.70;;
11490;SDS011;5802;52.832;4.758;2023-04-01T05:11:41;0.50;;;0.45;;
11490;SDS011;5802;52.832;4.758;2023-04-01T05:14:11;1.08;;;0.60;;
11490;SDS011;5802;52.832;4.758;2023-04-01T05:16:39;1.00;;;0.60;;
11490;SDS011;5802;52.832;4.758;2023-04-01T05:19:07;1.10;;;0.70;;
11490;SDS011;5802;52.832;4.758;2023-04-01T05:21:34;1.42;;;0.52;;
11490;SDS011;5802;52.832;4.758;2023-04-01T05:24:01;0.88;;;0.55;;
11490;SDS011;5802;52.832;4.758;2023-04-01T05:26:27;1.10;;;0.68;;
11490;SDS011;5802;52.832;4.758;2023-04-01T05:28:54;0.40;;;0.40;;
11490;SDS011;5802;52.832;4.758;2023-04-01T05:31:21;1.80;;;0.80;;
11490;SDS011;5802;52.832;4.758;2023-04-01T05:33:48;1.67;;;0.70;;
11490;SDS011;5802;52.832;4.758;2023-04-01T05:36:16;1.00;;;0.90;;
11490;SDS011;5802;52.832;4.758;2023-04-01T05:38:43;0.75;;;0.65;;
11490;SDS011;5802;52.832;4.758;2023-04-01T05:41:12;0.75;;;0.70;;
11490;SDS011;5802;52.832;4.758;2023-04-01T05:43:39;1.20;;;0.80;;
11490;SDS011;5802;52.832;4.758;2023-04-01T05:46:07;1.40;;;0.90;;
11490;SDS011;5802;52.832;4.758;2023-04-01T05:48:35;1.23;;;0.98;;
11490;SDS011;5802;52.832;4.758;2023-04-01T05:51:01;0.50;;;0.50;;
11490;SDS011;5802;52.832;4.758;2023-04-01T05:53:30;0.85;;;0.75;;
11490;SDS011;5802;52.832;4.758;2023-04-01T05:56:01;1.30;;;0.80;;
11490;SDS011;5802;52.832;4.758;2023-04-01T05:58:28;0.70;;;0.70;;
11490;SDS011;5802;52.832;4.758;2023-04-01T06:00:59;1.40;;;0.90;;
11490;SDS011;5802;52.832;4.758;2023-04-01T06:03:27;0.88;;;0.70;;
11490;SDS011;5802;52.832;4.758;2023-04-01T06:05:54;0.85;;;0.80;;
11490;SDS011;5802;52.832;4.758;2023-04-01T06:08:21;1.10;;;0.90;;
11490;SDS011;5802;52.832;4.758;2023-04-01T06:10:51;1.10;;;0.70;;
11490;SDS011;5802;52.832;4.758;2023-04-01T06:13:28;2.65;;;1.02;;
11490;SDS011;5802;52.832;4.758;2023-04-01T06:16:07;1.55;;;0.70;;
11490;SDS011;5802;52.832;4.758;2023-04-01T06:18:45;1.92;;;0.80;;
11490;SDS011;5802;52.832;4.758;2023-04-01T06:21:34;1.13;;;0.70;;
11490;SDS011;5802;52.832;4.758;2023-04-01T06:24:27;2.17;;;0.90;;
11490;SDS011;5802;52.832;4.758;2023-04-01T06:27:08;2.33;;;1.02;;
11490;SDS011;5802;52.832;4.758;2023-04-01T06:32:38;2.30;;;1.20;;
11490;SDS011;5802;52.832;4.758;2023-04-01T06:35:21;1.10;;;0.90;;
11490;SDS011;5802;52.832;4.758;2023-04-01T06:38:02;5.78;;;1.08;;
11490;SDS011;5802;52.832;4.758;2023-04-01T06:40:41;1.50;;;0.93;;
11490;SDS011;5802;52.832;4.758;2023-04-01T06:43:20;1.67;;;0.90;;
11490;SDS011;5802;52.832;4.758;2023-04-01T06:45:52;1.58;;;1.02;;
11490;SDS011;5802;52.832;4.758;2023-04-01T06:48:29;1.42;;;0.93;;
11490;SDS011;5802;52.832;4.758;2023-04-01T06:51:08;3.38;;;1.25;;
11490;SDS011;5802;52.832;4.758;2023-04-01T06:53:42;1.27;;;0.90;;
11490;SDS011;5802;52.832;4.758;2023-04-01T06:56:16;1.42;;;1.02;;
11490;SDS011;5802;52.832;4.758;2023-04-01T06:58:48;1.25;;;0.90;;
11490;SDS011;5802;52.832;4.758;2023-04-01T07:01:20;1.45;;;0.77;;
11490;SDS011;5802;52.832;4.758;2023-04-01T07:03:51;3.13;;;1.00;;
11490;SDS011;5802;52.832;4.758;2023-04-01T07:06:24;2.13;;;1.00;;
11490;SDS011;5802;52.832;4.758;2023-04-01T07:08:54;1.27;;;0.95;;
11490;SDS011;5802;52.832;4.758;2023-04-01T07:11:26;3.90;;;1.00;;
11490;SDS011;5802;52.832;4.758;2023-04-01T07:13:59;1.52;;;0.82;;
11490;SDS011;5802;52.832;4.758;2023-04-01T07:16:29;1.30;;;0.90;;
11490;SDS011;5802;52.832;4.758;2023-04-01T07:19:00;2.35;;;0.90;;
11490;SDS011;5802;52.832;4.758;2023-04-01T07:21:32;1.65;;;0.90;;
11490;SDS011;5802;52.832;4.758;2023-04-01T07:24:04;1.08;;;0.70;;
11490;SDS011;5802;52.832;4.758;2023-04-01T07:26:36;1.48;;;0.85;;
11490;SDS011;5802;52.832;4.758;2023-04-01T07:29:08;2.42;;;1.00;;
11490;SDS011;5802;52.832;4.758;2023-04-01T07:31:41;2.30;;;0.82;;
11490;SDS011;5802;52.832;4.758;2023-04-01T07:34:19;1.63;;;0.90;;
11490;SDS011;5802;52.832;4.758;2023-04-01T07:36:52;1.83;;;0.93;;
11490;SDS011;5802;52.832;4.758;2023-04-01T07:39:30;2.00;;;0.90;;
11490;SDS011;5802;52.832;4.758;2023-04-01T07:42:08;1.88;;;1.00;;
11490;SDS011;5802;52.832;4.758;2023-04-01T07:44:46;2.80;;;1.00;;
11490;SDS011;5802;52.832;4.758;2023-04-01T07:47:27;1.88;;;1.20;;
11490;SDS011;5802;52.832;4.758;2023-04-01T07:50:17;2.45;;;0.90;;
11490;SDS011;5802;52.832;4.758;2023-04-01T07:52:49;2.42;;;0.85;;
11490;SDS011;5802;52.832;4.758;2023-04-01T07:55:28;1.23;;;0.98;;
11490;SDS011;5802;52.832;4.758;2023-04-01T07:58:04;1.33;;;0.90;;
11490;SDS011;5802;52.832;4.758;2023-04-01T08:00:41;1.88;;;1.15;;
11490;SDS011;5802;52.832;4.758;2023-04-01T08:03:21;1.17;;;0.90;;
11490;SDS011;5802;52.832;4.758;2023-04-01T08:05:57;1.08;;;0.80;;
11490;SDS011;5802;52.832;4.758;2023-04-01T08:08:29;2.50;;;0.93;;
11490;SDS011;5802;52.832;4.758;2023-04-01T08:11:04;1.88;;;1.20;;
11490;SDS011;5802;52.832;4.758;2023-04-01T08:13:39;1.15;;;0.90;;
11490;SDS011;5802;52.832;4.758;2023-04-01T08:16:14;1.45;;;1.00;;
11490;SDS011;5802;52.832;4.758;2023-04-01T08:18:47;1.00;;;0.90;;
11490;SDS011;5802;52.832;4.758;2023-04-01T08:21:25;0.70;;;0.70;;
11490;SDS011;5802;52.832;4.758;2023-04-01T08:23:55;2.60;;;1.00;;
11490;SDS011;5802;52.832;4.758;2023-04-01T08:26:26;1.60;;;1.08;;
11490;SDS011;5802;52.832;4.758;2023-04-01T08:28:59;1.30;;;0.63;;
11490;SDS011;5802;52.832;4.758;2023-04-01T08:31:31;1.73;;;1.10;;
11490;SDS011;5802;52.832;4.758;2023-04-01T08:34:02;0.85;;;0.70;;
11490;SDS011;5802;52.832;4.758;2023-04-01T08:36:31;1.02;;;0.82;;
11490;SDS011;5802;52.832;4.758;2023-04-01T08:39:02;0.80;;;0.70;;
11490;SDS011;5802;52.832;4.758;2023-04-01T08:41:39;2.35;;;0.93;;
11490;SDS011;5802;52.832;4.758;2023-04-01T08:44:55;1.30;;;0.75;;
11490;SDS011;5802;52.832;4.758;2023-04-01T08:47:38;1.30;;;0.77;;
11490;SDS011;5802;52.832;4.758;2023-04-01T08:50:27;1.17;;;0.65;;
11490;SDS011;5802;52.832;4.758;2023-04-01T08:53:06;0.77;;;0.60;;
11490;SDS011;5802;52.832;4.758;2023-04-01T08:55:56;1.13;;;0.73;;
11490;SDS011;5802;52.832;4.758;2023-04-01T08:58:35;1.20;;;0.70;;
11490;SDS011;5802;52.832;4.758;2023-04-01T09:01:36;1.05;;;0.80;;
11490;SDS011;5802;52.832;4.758;2023-04-01T09:04:32;0.80;;;0.57;;
11490;SDS011;5802;52.832;4.758;2023-04-01T09:07:14;0.88;;;0.80;;
11490;SDS011;5802;52.832;4.758;2023-04-01T09:12:52;1.00;;;0.90;;
11490;SDS011;5802;52.832;4.758;2023-04-01T09:15:37;1.10;;;1.00;;
11490;SDS011;5802;52.832;4.758;2023-04-01T09:18:21;1.27;;;1.00;;
11490;SDS011;5802;52.832;4.758;2023-04-01T09:24:15;5.78;;;1.13;;
11490;SDS011;5802;52.832;4.758;2023-04-01T09:26:59;1.80;;;0.93;;
11490;SDS011;5802;52.832;4.758;2023-04-01T09:29:35;1.25;;;0.82;;
11490;SDS011;5802;52.832;4.758;2023-04-01T09:32:33;1.80;;;1.00;;
11490;SDS011;5802;52.832;4.758;2023-04-01T09:35:19;1.92;;;1.10;;
11490;SDS011;5802;52.832;4.758;2023-04-01T09:37:51;4.57;;;1.15;;
11490;SDS011;5802;52.832;4.758;2023-04-01T09:40:24;3.83;;;1.02;;
11490;SDS011;5802;52.832;4.758;2023-04-01T09:45:55;2.03;;;1.13;;
11490;SDS011;5802;52.832;4.758;2023-04-01T09:48:39;3.42;;;0.93;;
11490;SDS011;5802;52.832;4.758;2023-04-01T09:51:22;3.80;;;1.10;;
11490;SDS011;5802;52.832;4.758;2023-04-01T09:54:01;1.92;;;1.10;;
11490;SDS011;5802;52.832;4.758;2023-04-01T09:56:46;1.67;;;0.90;;
11490;SDS011;5802;52.832;4.758;2023-04-01T09:59:41;4.45;;;1.42;;
11490;SDS011;5802;52.832;4.758;2023-04-01T10:02:27;4.03;;;1.33;;
11490;SDS011;5802;52.832;4.758;2023-04-01T10:05:26;3.03;;;1.10;;
11490;SDS011;5802;52.832;4.758;2023-04-01T10:08:20;3.65;;;1.45;;
11490;SDS011;5802;52.832;4.758;2023-04-01T10:11:26;2.65;;;1.10;;
11490;SDS011;5802;52.832;4.758;2023-04-01T10:14:24;8.30;;;1.30;;
11490;SDS011;5802;52.832;4.758;2023-04-01T10:17:15;3.40;;;1.23;;
11490;SDS011;5802;52.832;4.758;2023-04-01T10:20:09;2.10;;;1.33;;
11490;SDS011;5802;52.832;4.758;2023-04-01T10:25:57;9.85;;;1.17;;
11490;SDS011;5802;52.832;4.758;2023-04-01T10:28:40;6.07;;;1.05;;
11490;SDS011;5802;52.832;4.758;2023-04-01T10:31:29;5.00;;;1.20;;
11490;SDS011;5802;52.832;4.758;2023-04-01T10:34:25;2.28;;;1.10;;
11490;SDS011;5802;52.832;4.758;2023-04-01T10:37:22;2.72;;;1.17;;
11490;SDS011;5802;52.832;4.758;2023-04-01T10:40:13;4.53;;;1.23;;
11490;SDS011;5802;52.832;4.758;2023-04-01T10:49:43;2.17;;;1.20;;
11490;SDS011;5802;52.832;4.758;2023-04-01T10:55:32;3.50;;;1.30;;
11490;SDS011;5802;52.832;4.758;2023-04-01T10:58:16;3.08;;;1.30;;
11490;SDS011;5802;52.832;4.758;2023-04-01T11:01:07;5.88;;;1.40;;
11490;SDS011;5802;52.832;4.758;2023-04-01T11:04:33;2.78;;;1.00;;
11490;SDS011;5802;52.832;4.758;2023-04-01T11:10:45;1.95;;;1.08;;
11490;SDS011;5802;52.832;4.758;2023-04-01T11:13:49;3.53;;;1.30;;
11490;SDS011;5802;52.832;4.758;2023-04-01T11:19:51;3.50;;;1.05;;
11490;SDS011;5802;52.832;4.758;2023-04-01T11:22:47;3.17;;;1.23;;
11490;SDS011;5802;52.832;4.758;2023-04-01T11:25:29;2.45;;;1.00;;
11490;SDS011;5802;52.832;4.758;2023-04-01T11:31:16;2.17;;;0.90;;
11490;SDS011;5802;52.832;4.758;2023-04-01T11:33:53;1.52;;;0.95;;
11490;SDS011;5802;52.832;4.758;2023-04-01T11:36:30;3.40;;;1.30;;
11490;SDS011;5802;52.832;4.758;2023-04-01T11:39:13;1.05;;;0.80;;
11490;SDS011;5802;52.832;4.758;2023-04-01T11:41:49;1.70;;;1.10;;
11490;SDS011;5802;52.832;4.758;2023-04-01T11:44:23;4.20;;;1.27;;
11490;SDS011;5802;52.832;4.758;2023-04-01T11:46:57;1.10;;;0.90;;
11490;SDS011;5802;52.832;4.758;2023-04-01T11:49:39;3.15;;;1.10;;
11490;SDS011;5802;52.832;4.758;2023-04-01T11:52:18;3.95;;;1.15;;
11490;SDS011;5802;52.832;4.758;2023-04-01T11:55:04;3.92;;;1.20;;
11490;SDS011;5802;52.832;4.758;2023-04-01T11:57:43;3.17;;;1.10;;
11490;SDS011;5802;52.832;4.758;2023-04-01T12:00:22;2.78;;;1.15;;
11490;SDS011;5802;52.832;4.758;2023-04-01T12:03:10;2.78;;;1.08;;
11490;SDS011;5802;52.832;4.758;2023-04-01T12:05:48;4.20;;;1.20;;
11490;SDS011;5802;52.832;4.758;2023-04-01T12:08:27;2.72;;;1.20;;
11490;SDS011;5802;52.832;4.758;2023-04-01T12:11:06;2.78;;;1.13;;
11490;SDS011;5802;52.832;4.758;2023-04-01T12:13:42;4.28;;;1.15;;
11490;SDS011;5802;52.832;4.758;2023-04-01T12:16:21;3.30;;;1.08;;
11490;SDS011;5802;52.832;4.758;2023-04-01T12:19:02;3.53;;;1.20;;
11490;SDS011;5802;52.832;4.758;2023-04-01T12:21:36;3.13;;;0.95;;
11490;SDS011;5802;52.832;4.758;2023-04-01T12:27:31;3.03;;;1.17;;
11490;SDS011;5802;52.832;4.758;2023-04-01T12:36:08;2.08;;;1.15;;
11490;SDS011;5802;52.832;4.758;2023-04-01T12:39:00;2.63;;;1.30;;
11490;SDS011;5802;52.832;4.758;2023-04-01T12:41:45;2.67;;;1.23;;
11490;SDS011;5802;52.832;4.758;2023-04-01T12:44:19;2.75;;;1.30;;
11490;SDS011;5802;52.832;4.758;2023-04-01T12:47:08;4.57;;;1.80;;
11490;SDS011;5802;52.832;4.758;2023-04-01T12:49:55;4.30;;;2.08;;
11490;SDS011;5802;52.832;4.758;2023-04-01T12:52:56;7.75;;;2.50;;
11490;SDS011;5802;52.832;4.758;2023-04-01T12:55:38;6.07;;;2.53;;
11490;SDS011;5802;52.832;4.758;2023-04-01T13:01:19;5.38;;;2.40;;
11490;SDS011;5802;52.832;4.758;2023-04-01T13:04:05;5.30;;;2.40;;
11490;SDS011;5802;52.832;4.758;2023-04-01T13:06:52;6.07;;;2.70;;
11490;SDS011;5802;52.832;4.758;2023-04-01T13:09:41;6.72;;;2.30;;
11490;SDS011;5802;52.832;4.758;2023-04-01T13:12:22;5.82;;;2.40;;
11490;SDS011;5802;52.832;4.758;2023-04-01T13:15:05;4.78;;;2.35;;
11490;SDS011;5802;52.832;4.758;2023-04-01T13:17:50;6.50;;;2.28;;
11490;SDS011;5802;52.832;4.758;2023-04-01T13:20:27;5.50;;;2.55;;
11490;SDS011;5802;52.832;4.758;2023-04-01T13:23:05;5.35;;;2.20;;
11490;SDS011;5802;52.832;4.758;2023-04-01T13:25:39;6.75;;;2.35;;
11490;SDS011;5802;52.832;4.758;2023-04-01T13:28:14;4.60;;;2.45;;
11490;SDS011;5802;52.832;4.758;2023-04-01T13:30:46;3.33;;;1.90;;
11490;SDS011;5802;52.832;4.758;2023-04-01T13:33:24;3.28;;;1.77;;
11490;SDS011;5802;52.832;4.758;2023-04-01T13:35:59;3.95;;;2.28;;
11490;SDS011;5802;52.832;4.758;2023-04-01T13:38:46;4.00;;;2.03;;
11490;SDS011;5802;52.832;4.758;2023-04-01T13:41:22;4.57;;;2.00;;
11490;SDS011;5802;52.832;4.758;2023-04-01T13:43:58;6.45;;;2.45;;
11490;SDS011;5802;52.832;4.758;2023-04-01T13:46:41;8.63;;;1.98;;
11490;SDS011;5802;52.832;4.758;2023-04-01T13:49:32;7.13;;;2.15;;
11490;SDS011;5802;52.832;4.758;2023-04-01T13:55:21;2.88;;;1.80;;
11490;SDS011;5802;52.832;4.758;2023-04-01T13:58:02;7.45;;;1.73;;
11490;SDS011;5802;52.832;4.758;2023-04-01T14:00:42;4.78;;;1.90;;
11490;SDS011;5802;52.832;4.758;2023-04-01T14:03:21;5.63;;;1.63;;
11490;SDS011;5802;52.832;4.758;2023-04-01T14:06:17;4.53;;;1.77;;
11490;SDS011;5802;52.832;4.758;2023-04-01T14:08:56;7.25;;;1.98;;
11490;SDS011;5802;52.832;4.758;2023-04-01T14:11:39;6.78;;;1.58;;
11490;SDS011;5802;52.832;4.758;2023-04-01T14:14:14;4.60;;;1.73;;
11490;SDS011;5802;52.832;4.758;2023-04-01T14:16:54;6.05;;;1.52;;
11490;SDS011;5802;52.832;4.758;2023-04-01T14:19:44;2.90;;;1.40;;
11490;SDS011;5802;52.832;4.758;2023-04-01T14:22:46;6.32;;;1.60;;
11490;SDS011;5802;52.832;4.758;2023-04-01T14:25:50;5.07;;;1.65;;
11490;SDS011;5802;52.832;4.758;2023-04-01T14:28:28;3.33;;;1.60;;
11490;SDS011;5802;52.832;4.758;2023-04-01T14:31:09;3.60;;;1.45;;
11490;SDS011;5802;52.832;4.758;2023-04-01T14:33:49;4.55;;;1.48;;
11490;SDS011;5802;52.832;4.758;2023-04-01T14:36:40;7.18;;;1.90;;
11490;SDS011;5802;52.832;4.758;2023-04-01T14:39:24;2.53;;;1.20;;
11490;SDS011;5802;52.832;4.758;2023-04-01T14:42:09;3.28;;;1.40;;
11490;SDS011;5802;52.832;4.758;2023-04-01T14:45:02;3.55;;;1.63;;
11490;SDS011;5802;52.832;4.758;2023-04-01T14:47:47;3.65;;;1.40;;
11490;SDS011;5802;52.832;4.758;2023-04-01T14:50:19;7.70;;;1.60;;
11490;SDS011;5802;52.832;4.758;2023-04-01T14:52:52;4.20;;;1.60;;
11490;SDS011;5802;52.832;4.758;2023-04-01T14:55:29;3.63;;;1.30;;
11490;SDS011;5802;52.832;4.758;2023-04-01T14:58:00;5.03;;;1.45;;
11490;SDS011;5802;52.832;4.758;2023-04-01T15:00:40;4.45;;;1.58;;
11490;SDS011;5802;52.832;4.758;2023-04-01T15:03:13;4.00;;;1.73;;
11490;SDS011;5802;52.832;4.758;2023-04-01T15:05:49;4.78;;;1.85;;
11490;SDS011;5802;52.832;4.758;2023-04-01T15:08:19;5.90;;;2.55;;
11490;SDS011;5802;52.832;4.758;2023-04-01T15:10:52;8.35;;;2.33;;
11490;SDS011;5802;52.832;4.758;2023-04-01T15:13:31;11.45;;;2.67;;
11490;SDS011;5802;52.832;4.758;2023-04-01T15:16:19;8.52;;;3.00;;
11490;SDS011;5802;52.832;4.758;2023-04-01T15:18:56;6.03;;;2.88;;
11490;SDS011;5802;52.832;4.758;2023-04-01T15:21:36;6.22;;;2.70;;
11490;SDS011;5802;52.832;4.758;2023-04-01T15:24:19;7.45;;;2.80;;
11490;SDS011;5802;52.832;4.758;2023-04-01T15:26:59;7.32;;;2.80;;
11490;SDS011;5802;52.832;4.758;2023-04-01T15:29:50;7.57;;;2.58;;
11490;SDS011;5802;52.832;4.758;2023-04-01T15:32:44;10.55;;;2.90;;
11490;SDS011;5802;52.832;4.758;2023-04-01T15:35:21;4.00;;;2.10;;
11490;SDS011;5802;52.832;4.758;2023-04-01T15:37:59;5.00;;;2.45;;
11490;SDS011;5802;52.832;4.758;2023-04-01T15:40:34;4.40;;;2.15;;
11490;SDS011;5802;52.832;4.758;2023-04-01T15:43:12;5.00;;;2.00;;
11490;SDS011;5802;52.832;4.758;2023-04-01T15:45:49;6.10;;;2.08;;
11490;SDS011;5802;52.832;4.758;2023-04-01T15:48:27;4.68;;;2.17;;
11490;SDS011;5802;52.832;4.758;2023-04-01T15:51:02;7.65;;;2.30;;
11490;SDS011;5802;52.832;4.758;2023-04-01T15:53:44;6.13;;;2.13;;
11490;SDS011;5802;52.832;4.758;2023-04-01T15:56:36;5.80;;;2.28;;
11490;SDS011;5802;52.832;4.758;2023-04-01T15:59:18;4.63;;;1.80;;
11490;SDS011;5802;52.832;4.758;2023-04-01T16:01:57;6.70;;;1.80;;
11490;SDS011;5802;52.832;4.758;2023-04-01T16:04:39;3.78;;;1.80;;
11490;SDS011;5802;52.832;4.758;2023-04-01T16:07:19;4.90;;;1.83;;
11490;SDS011;5802;52.832;4.758;2023-04-01T16:09:59;6.30;;;2.15;;
11490;SDS011;5802;52.832;4.758;2023-04-01T16:12:47;5.00;;;1.98;;
11490;SDS011;5802;52.832;4.758;2023-04-01T16:15:28;4.97;;;1.55;;
11490;SDS011;5802;52.832;4.758;2023-04-01T16:18:08;2.97;;;1.80;;
11490;SDS011;5802;52.832;4.758;2023-04-01T16:20:55;5.32;;;1.58;;
11490;SDS011;5802;52.832;4.758;2023-04-01T16:23:26;4.45;;;1.33;;
11490;SDS011;5802;52.832;4.758;2023-04-01T16:26:03;6.35;;;1.50;;
11490;SDS011;5802;52.832;4.758;2023-04-01T16:28:34;4.90;;;1.90;;
11490;SDS011;5802;52.832;4.758;2023-04-01T16:31:12;5.47;;;1.75;;
11490;SDS011;5802;52.832;4.758;2023-04-01T16:33:45;3.75;;;1.63;;
11490;SDS011;5802;52.832;4.758;2023-04-01T16:36:24;6.38;;;1.60;;
11490;SDS011;5802;52.832;4.758;2023-04-01T16:39:04;5.63;;;1.75;;
11490;SDS011;5802;52.832;4.758;2023-04-01T16:41:47;3.67;;;1.50;;
11490;SDS011;5802;52.832;4.758;2023-04-01T16:44:18;3.53;;;1.65;;